Latest Weather Observations for Mount Gambier

IDS60801

Issued at 10:31 pm CST Thursday 3 September 2015 (issued every 30 minutes, with the page automatically refreshed every 10 minutes)

About weather observations | Map of weather stations | Latest weather observations for SA | Other Formats
Station Details ID: 026021 Name: MOUNT GAMBIER AERO Lat: -37.75 Lon: 140.77 Height: 63.0 m
Data from the previous 72 hours. | See also: Recent months at Mount Gambier
Date/Time
CST
Temp
°C
App
Temp
°C
Dew
Point
Rel
Hum
%
Delta-T
°C
Wind Press
QNH
hPa
Press
MSL
hPa
Rain
since 9 am
mm
Dir
 
Spd
km/h
Gust
km/h
Spd
kts
Gust
kts
03/10:30pm 8.4 6.0 6.9 90 0.7 WSW 9 11 5 6 1025.7 1025.8 0.6
03/10:00pm 8.4 6.4 7.1 91 0.6 SW 7 7 4 4 1025.5 1025.6 0.6
03/09:30pm 8.3 6.5 7.0 91 0.6 SSW 6 7 3 4 1025.2 1025.3 0.6
03/09:00pm 8.5 6.5 7.0 90 0.7 SW 7 9 4 5 1024.9 1025.0 0.6
03/08:30pm 8.2 5.3 6.7 90 0.7 SSW 11 13 6 7 1024.8 1024.9 0.6
03/08:00pm 7.4 4.8 6.3 93 0.5 SSW 9 11 5 6 1024.5 1024.6 0.6
03/07:30pm 8.9 6.5 7.0 88 0.9 SW 9 11 5 6 1024.2 1024.3 0.6
03/07:00pm 9.4 7.1 7.3 87 1.0 S 9 13 5 7 1023.9 1024.0 0.6
03/06:30pm 9.8 6.8 7.5 85 1.1 SSW 13 15 7 8 1023.6 1023.7 0.6
03/06:00pm 10.1 7.1 7.8 86 1.1 S 13 15 7 8 1023.2 1023.3 0.6
03/05:30pm 10.8 7.0 7.5 80 1.6 S 17 22 9 12 1022.8 1022.9 0.6
03/05:00pm 11.2 6.9 7.7 79 1.7 S 20 28 11 15 1022.3 1022.4 0.6
03/04:30pm 11.4 7.3 7.7 78 1.8 S 19 26 10 14 1022.0 1022.1 0.6
03/04:00pm 11.4 6.8 8.3 81 1.5 SSW 22 30 12 16 1021.8 1021.9 0.6
03/03:30pm 11.3 6.7 8.2 81 1.5 S 22 30 12 16 1021.5 1021.6 0.6
03/03:00pm 11.3 5.8 9.1 86 1.1 SSW 28 37 15 20 1021.1 1021.2 0.6
03/02:30pm 11.8 7.1 10.6 92 0.6 S 26 33 14 18 1020.7 1020.8 0.6
03/02:09pm 11.4 5.2 10.2 92 0.6 S 33 43 18 23 1020.5 1020.6 0.4
03/02:00pm 11.9 6.2 9.9 87 1.0 SSW 30 37 16 20 1020.3 1020.4 0.4
03/01:59pm 11.7 6.0 9.9 89 0.9 SSW 30 37 16 20 1020.3 1020.4 0.4
03/01:39pm 11.4 6.1 10.0 91 0.7 S 28 39 15 21 1020.1 1020.2 0.4
03/01:30pm 11.7 5.6 9.9 89 0.9 S 32 39 17 21 1019.9 1020.0 0.4
03/01:16pm 12.1 6.4 9.9 86 1.1 S 30 39 16 21 1019.9 1020.0 0.4
03/01:00pm 11.7 5.8 10.3 91 0.7 S 32 37 17 20 1019.8 1019.9 0.4
03/12:51pm 11.3 6.1 10.1 92 0.6 S 28 35 15 19 1019.8 1019.9 0.4
03/12:34pm 11.5 5.8 9.7 89 0.9 S 30 35 16 19 1019.8 1019.9 0.2
03/12:30pm 12.1 6.3 9.5 84 1.3 S 30 37 16 20 1019.8 1019.9 0.0
03/12:00pm 12.6 6.4 9.4 81 1.6 S 32 43 17 23 1019.6 1019.7 0.0
03/11:40am 11.9 6.3 10.1 89 0.9 S 30 39 16 21 1019.6 1019.7 0.0
03/11:32am 11.7 5.6 9.9 89 0.9 S 32 39 17 21 1019.5 1019.6 0.0
03/11:30am 11.8 6.1 9.8 87 1.0 S 30 37 16 20 1019.5 1019.6 0.0
03/11:21am 11.5 6.3 10.1 91 0.7 S 28 37 15 20 1019.4 1019.5 0.0
03/11:00am 11.7 6.1 10.3 91 0.7 S 30 39 16 21 1019.2 1019.3 0.0
03/10:30am 11.9 6.8 10.7 92 0.6 S 28 35 15 19 1018.9 1019.0 0.0
03/10:04am 12.4 8.0 10.5 88 1.0 S 24 33 13 18 1018.6 1018.7 0.0
03/10:00am 12.7 8.4 10.6 87 1.1 S 24 37 13 20 1018.5 1018.6 0.0
03/09:30am 13.0 8.6 10.5 85 1.3 S 24 32 13 17 1018.1 1018.2 0.0
03/09:00am 12.7 8.4 10.6 87 1.1 S 24 33 13 18 1017.5 1017.6 2.6
03/08:30am 12.4 8.7 10.3 87 1.1 S 20 28 11 15 1016.9 1017.0 2.6
03/08:00am 11.9 8.1 9.7 86 1.1 S 20 30 11 16 1016.2 1016.2 2.6
03/07:30am 11.3 6.8 9.9 91 0.7 S 24 33 13 18 1015.6 1015.6 2.6
03/07:00am 11.0 7.2 9.8 92 0.6 SSW 20 28 11 15 1014.8 1014.8 2.6
03/06:36am 10.8 6.6 9.6 92 0.6 SSW 22 30 12 16 1014.2 1014.2 2.6
03/06:30am 10.8 6.6 9.8 93 0.5 S 22 30 12 16 1014.1 1014.1 2.6
03/06:16am 10.8 6.6 9.6 92 0.6 S 22 30 12 16 1013.7 1013.7 2.6
03/06:00am 10.9 7.1 9.9 93 0.5 SSW 20 28 11 15 1013.4 1013.4 2.6
03/05:30am 10.8 7.2 9.8 93 0.5 S 19 24 10 13 1012.7 1012.7 2.6
03/05:00am 10.6 7.7 9.8 95 0.4 S 15 19 8 10 1012.1 1012.1 2.6
03/04:30am 10.4 6.2 9.8 96 0.3 S 22 30 12 16 1011.4 1011.4 2.4
03/04:00am 9.8 5.1 9.4 97 0.2 SSW 24 30 13 16 1010.8 1010.8 2.4
03/03:30am 10.1 6.5 9.9 99 0.1 SSW 19 24 10 13 1010.1 1010.2 2.4
03/03:00am 9.9 7.0 9.7 99 0.1 SSW 15 20 8 11 1009.9 1010.0 2.4
03/02:30am 9.4 6.8 9.2 99 0.1 SSW 13 15 7 8 1009.8 1009.9 2.4
03/02:00am 8.5 5.6 8.3 99 0.1 SSW 13 15 7 8 1009.7 1009.8 2.4
03/01:51am 8.5 5.6 8.3 99 0.1 SSW 13 15 7 8 1009.7 1009.8 2.4
03/01:30am 8.9 5.7 8.5 97 0.2 SW 15 20 8 11 1009.6 1009.7 2.4
03/01:20am 9.0 6.2 8.6 97 0.2 SW 13 17 7 9 1009.6 1009.7 2.4
03/01:00am 8.7 7.0 8.5 99 0.1 SSW 7 9 4 5 1009.4 1009.5 2.4
03/12:30am 8.9 7.3 8.7 99 0.1 SW 7 7 4 4 1009.4 1009.5 2.4
03/12:00am 8.8 7.3 8.6 99 0.1 SSW 6 7 3 4 1008.7 1008.8 2.4
 
Date/Time
CST
Temp
°C
App
Temp
°C
Dew
Point
Rel
Hum
%
Delta-T
°C
Wind Press
QNH
hPa
Press
MSL
hPa
Rain
since 9 am
mm
Dir
 
Spd
km/h
Gust
km/h
Spd
kts
Gust
kts
02/11:30pm 9.1 6.3 8.7 97 0.2 SW 13 15 7 8 1008.9 1009.0 2.4
02/11:00pm 9.2 7.2 8.8 97 0.2 WSW 9 11 5 6 1008.8 1008.9 2.4
02/10:30pm 9.3 9.1 8.9 97 0.2 CALM 0 0 0 0 1008.9 1009.0 2.4
02/10:00pm 9.2 9.0 9.0 99 0.1 CALM 0 0 0 0 1008.6 1008.7 2.4
02/09:47pm 9.2 9.0 9.0 99 0.1 CALM 0 0 0 0 1008.5 1008.6 2.4
02/09:30pm 9.2 8.9 8.8 97 0.2 CALM 0 0 0 0 1008.4 1008.5 2.4
02/09:01pm 9.2 7.3 9.0 99 0.1 SSW 9 9 5 5 1008.0 1008.1 2.4
02/09:00pm 9.2 7.3 9.0 99 0.1 SSW 9 9 5 5 1007.9 1008.0 2.4
02/08:30pm 9.4 7.1 9.0 97 0.2 SSW 11 13 6 7 1008.0 1008.1 2.4
02/08:00pm 9.4 7.1 9.0 97 0.2 S 11 11 6 6 1007.7 1007.8 2.4
02/07:30pm 9.2 7.8 8.8 97 0.2 SSE 6 7 3 4 1007.4 1007.5 2.4
02/07:00pm 9.3 9.1 8.9 97 0.2 CALM 0 0 0 0 1007.0 1007.1 2.4
02/06:30pm 9.3 7.7 8.9 97 0.2 SW 7 9 4 5 1006.5 1006.6 2.4
02/06:00pm 9.4 7.9 9.0 97 0.2 SW 7 7 4 4 1006.1 1006.2 2.4
02/05:30pm 9.6 8.2 9.0 96 0.3 NW 6 6 3 3 1005.9 1006.0 2.4
02/05:13pm 9.7 8.2 9.1 96 0.3 NW 7 11 4 6 1005.7 1005.8 2.4
02/05:00pm 9.8 8.4 9.4 97 0.2 NNW 7 11 4 6 1005.7 1005.8 2.2
02/04:31pm 10.2 10.1 9.6 96 0.3 CALM 0 0 0 0 1005.3 1005.4 1.6
02/04:30pm 10.3 10.2 9.5 95 0.4 CALM 0 0 0 0 1005.3 1005.4 1.6
02/04:00pm 10.2 9.0 9.6 96 0.3 NNW 6 9 3 5 1004.9 1005.0 1.2
02/03:39pm 10.4 8.2 9.4 93 0.5 N 11 15 6 8 1004.7 1004.8 0.8
02/03:30pm 10.4 8.6 9.6 95 0.4 N 9 13 5 7 1004.7 1004.8 0.8
02/03:00pm 10.4 7.8 9.2 92 0.6 NE 13 15 7 8 1004.5 1004.6 0.4
02/02:30pm 10.4 7.0 9.2 92 0.6 ENE 17 22 9 12 1004.0 1004.0 0.2
02/02:00pm 10.6 5.9 9.2 91 0.7 NE 24 30 13 16 1004.2 1004.2 0.0
02/01:30pm 10.7 5.9 8.7 87 1.0 NE 24 26 13 14 1004.4 1004.5 0.0
02/01:00pm 11.0 6.6 8.8 86 1.1 NE 22 28 12 15 1004.5 1004.6 0.0
02/12:43pm 11.0 5.8 9.0 87 1.0 NE 26 33 14 18 1005.0 1005.1 0.0
02/12:30pm 10.9 5.7 8.9 87 1.0 NE 26 30 14 16 1005.3 1005.4 0.0
02/12:24pm 10.9 5.8 9.1 89 0.9 NNE 26 30 14 16 1005.7 1005.8 0.0
02/12:00pm 10.8 6.0 8.8 87 1.0 NNE 24 33 13 18 1006.3 1006.4 0.0
02/11:30am 10.9 5.7 8.9 87 1.0 NNE 26 32 14 17 1006.9 1007.0 0.0
02/11:00am 11.3 5.9 8.0 80 1.6 NNE 26 32 14 17 1006.6 1006.7 0.0
02/10:30am 11.6 5.8 7.9 78 1.8 NNE 28 33 15 18 1006.2 1006.3 0.0
02/10:00am 11.5 5.6 7.4 76 2.0 NE 28 37 15 20 1006.0 1006.1 0.0
02/09:30am 11.1 5.2 7.6 79 1.7 NNE 28 35 15 19 1006.5 1006.6 0.0
02/09:00am 11.0 7.0 8.1 82 1.4 NNE 19 26 10 14 1006.9 1007.0 0.4
02/08:30am 10.4 7.1 8.1 86 1.1 NNE 15 19 8 10 1007.1 1007.2 0.4
02/08:00am 10.7 7.1 6.7 76 1.9 N 15 20 8 11 1007.1 1007.2 0.2
02/07:30am 10.3 6.2 6.0 75 2.0 N 17 24 9 13 1007.1 1007.2 0.2
02/07:00am 9.9 7.4 6.7 80 1.5 NNW 9 11 5 6 1006.6 1006.7 0.2
02/06:30am 10.7 8.3 5.3 69 2.5 NE 7 9 4 5 1006.2 1006.3 0.2
02/06:00am 10.8 8.4 5.4 69 2.5 NE 7 9 4 5 1006.2 1006.3 0.2
02/05:30am 11.3 8.0 4.5 63 3.1 NNE 11 13 6 7 1006.4 1006.5 0.2
02/05:00am 11.5 7.9 5.0 64 3.0 N 13 19 7 10 1006.5 1006.6 0.2
02/04:30am 13.1 7.8 2.1 47 4.8 NNE 19 22 10 12 1006.7 1006.8 0.0
02/04:00am 13.1 7.7 2.4 48 4.7 N 20 30 11 16 1006.8 1006.9 0.0
02/03:30am 13.0 8.1 2.3 48 4.7 NNE 17 28 9 15 1006.9 1007.0 0.0
02/03:00am 12.1 7.0 3.1 54 4.0 NE 19 24 10 13 1007.1 1007.2 0.0
02/02:30am 12.5 7.4 2.8 51 4.3 NE 19 20 10 11 1007.5 1007.6 0.0
02/02:00am 12.4 7.7 3.2 53 4.1 NE 17 17 9 9 1007.7 1007.8 0.0
02/01:30am 12.2 7.6 3.5 55 3.9 NE 17 22 9 12 1007.6 1007.7 0.0
02/01:00am 11.9 7.0 4.2 59 3.5 NE 19 22 10 12 1007.8 1007.9 0.0
02/12:30am 11.9 7.7 3.9 58 3.6 NE 15 17 8 9 1008.1 1008.2 0.0
02/12:00am 11.6 8.0 4.8 63 3.1 NE 13 17 7 9 1008.2 1008.3 0.0
 
Date/Time
CST
Temp
°C
App
Temp
°C
Dew
Point
Rel
Hum
%
Delta-T
°C
Wind Press
QNH
hPa
Press
MSL
hPa
Rain
since 9 am
mm
Dir
 
Spd
km/h
Gust
km/h
Spd
kts
Gust
kts
01/11:30pm 10.7 7.3 5.7 71 2.3 ENE 13 15 7 8 1008.5 1008.6 0.0
01/11:00pm 10.6 7.6 6.1 74 2.1 NE 11 13 6 7 1008.9 1009.0 0.0
01/10:30pm 10.4 7.8 6.1 75 2.0 ENE 9 11 5 6 1009.1 1009.2 0.0
01/10:00pm 9.9 7.0 6.3 78 1.7 ENE 11 15 6 8 1008.9 1009.0 0.0
01/09:30pm 10.6 7.8 7.0 78 1.7 E 11 11 6 6 1009.2 1009.3 0.0
01/09:00pm 11.6 9.7 7.5 76 2.0 ENE 7 7 4 4 1009.4 1009.5 0.0
01/08:30pm 11.5 9.9 8.7 83 1.4 ENE 7 9 4 5 1009.7 1009.8 0.0
01/08:00pm 12.2 12.0 9.2 82 1.5 CALM 0 0 0 0 1009.9 1010.0 0.0
01/07:30pm 12.9 12.6 8.7 75 2.1 CALM 0 0 0 0 1010.0 1010.1 0.0
01/07:00pm 13.4 11.1 9.1 75 2.2 NNE 11 13 6 7 1010.1 1010.2 0.0
01/06:30pm 13.9 12.4 9.0 72 2.5 NNE 7 9 4 5 1009.9 1010.0 0.0
01/06:00pm 14.1 11.9 9.2 72 2.5 E 11 13 6 7 1009.8 1009.9 0.0
01/05:30pm 14.6 12.3 8.9 68 2.9 E 11 13 6 7 1009.6 1009.7 0.0
01/05:00pm 15.4 13.3 8.3 62 3.6 NNE 9 11 5 6 1009.6 1009.7 0.0
01/04:30pm 15.9 14.0 9.1 64 3.5 N 9 9 5 5 1009.6 1009.7 0.0
01/04:00pm 16.6 14.1 8.2 57 4.3 N 11 13 6 7 1009.6 1009.7 0.0
01/03:30pm 16.7 13.8 8.1 57 4.4 ENE 13 17 7 9 1009.7 1009.8 0.0
01/03:00pm 16.7 12.9 7.6 55 4.6 ENE 17 20 9 11 1010.1 1010.2 0.0
01/02:30pm 17.3 13.2 6.4 48 5.4 NE 17 22 9 12 1010.5 1010.6 0.0
01/02:00pm 17.1 12.9 5.8 47 5.5 N 17 20 9 11 1010.9 1010.9 0.0
01/01:30pm 16.9 12.7 5.8 48 5.4 NNE 17 24 9 13 1011.5 1011.5 0.0
01/01:00pm 16.5 12.6 7.3 54 4.6 NE 17 24 9 13 1012.0 1012.0 0.0
01/12:30pm 15.1 11.2 7.2 59 3.9 NE 17 20 9 11 1012.5 1012.5 0.0
01/12:00pm 13.9 10.2 6.2 59 3.7 NE 15 20 8 11 1013.1 1013.1 0.0
01/11:30am 13.7 9.9 5.7 58 3.8 NNE 15 19 8 10 1013.8 1013.8 0.0
01/11:00am 14.0 10.4 6.8 62 3.5 NNE 15 20 8 11 1014.1 1014.1 0.0
01/10:30am 12.2 8.1 6.1 66 2.9 NNE 17 22 9 12 1014.3 1014.3 0.0
01/10:00am 11.0 5.9 5.8 70 2.4 NE 22 30 12 16 1014.4 1014.4 0.0
01/09:30am 9.2 4.8 5.0 75 1.9 NNE 17 22 9 12 1015.0 1015.0 0.0
01/09:00am 7.5 2.7 4.8 83 1.2 NE 19 22 10 12 1015.3 1015.4 0.0
01/08:30am 6.0 1.9 4.1 88 0.8 NE 15 19 8 10 1015.4 1015.5 0.0
01/08:00am 5.3 1.4 3.4 87 0.8 NE 13 17 7 9 1015.4 1015.5 0.0
01/07:30am 4.4 1.6 2.9 90 0.6 NE 7 9 4 5 1015.4 1015.5 0.0
01/07:00am 3.8 0.5 2.3 90 0.6 NE 9 9 5 5 1015.4 1015.5 0.0
01/06:30am 3.5 0.5 2.2 91 0.5 NE 7 9 4 5 1015.4 1015.5 0.0
01/06:00am 3.4 0.0 1.6 88 0.7 NE 9 11 5 6 1015.3 1015.4 0.0
01/05:30am 3.4 0.0 2.1 91 0.5 NE 9 9 5 5 1015.4 1015.5 0.0
01/05:00am 3.8 0.1 2.3 90 0.6 NE 11 13 6 7 1015.4 1015.5 0.0
01/04:30am 3.6 -0.1 2.3 91 0.5 NE 11 11 6 6 1015.4 1015.5 0.0
01/04:00am 3.4 -0.3 2.1 91 0.5 NNE 11 13 6 7 1015.6 1015.7 0.0
01/03:30am 3.3 -0.8 2.5 94 0.3 NE 13 13 7 7 1015.4 1015.5 0.0
01/03:00am 3.3 -0.1 2.0 91 0.5 NE 9 9 5 5 1015.8 1015.9 0.0
01/02:30am 2.8 -0.9 2.3 96 0.2 NE 11 11 6 6 1016.2 1016.3 0.0
01/02:00am 2.8 -0.5 2.3 96 0.2 ENE 9 11 5 6 1016.8 1016.9 0.0
01/01:30am 3.3 -0.3 2.8 97 0.2 ENE 11 13 6 7 1017.1 1017.2 0.0
01/01:00am 3.5 -0.1 3.0 97 0.2 NE 11 13 6 7 1017.4 1017.5 0.0
01/12:30am 3.9 0.8 3.7 99 0.1 ENE 9 11 5 6 1017.7 1017.8 0.0
01/12:00am 3.7 0.5 3.2 97 0.2 ENE 9 11 5 6 1018.0 1018.1 0.0
 
Date/Time
CST
Temp
°C
App
Temp
°C
Dew
Point
Rel
Hum
%
Delta-T
°C
Wind Press
QNH
hPa
Press
MSL
hPa
Rain
since 9 am
mm
Dir
 
Spd
km/h
Gust
km/h
Spd
kts
Gust
kts
31/11:30pm 3.6 0.8 3.4 99 0.1 E 7 9 4 5 1018.0 1018.1 0.0
31/11:14pm 3.8 1.1 3.6 99 0.1 E 7 9 4 5 1018.1 1018.2 0.0
31/11:00pm 3.8 1.3 3.6 99 0.1 ENE 6 7 3 4 1018.3 1018.4 0.0

Other Formats:

Comma delimited format used in spreadsheet applications
http://www.bom.gov.au/fwo/IDS60801/IDS60801.94821.axf

JavaScript Object Notation format (JSON) in row-major order
http://www.bom.gov.au/fwo/IDS60801/IDS60801.94821.json